Time;durP1;ratioP1;P1;durP2;ratioP2;P2;SDS_P1;SDS_P2;PMS_P1;PMS_P2;Temp;Humidity;BMP_temperature;BMP_pressure;BME280_temperature;BME280_humidity;BME280_pressure;Samples;Min_cycle;Max_cycle;Signal;HPM_P1;HPM_P2
2022/09/17 00:01:16;;;;;;;2.42;0.50;;;13.70;99.90;;;;;;6211057;28;20050;-82
2022/09/17 00:04:18;;;;;;;2.65;0.60;;;13.70;99.90;;;;;;6207274;28;20104;-82
2022/09/17 00:07:20;;;;;;;2.28;0.43;;;13.60;99.90;;;;;;6204387;28;20050;-83
2022/09/17 00:10:22;;;;;;;2.33;0.40;;;13.40;99.90;;;;;;6204777;28;20046;-82
2022/09/17 00:13:24;;;;;;;3.47;0.35;;;13.30;99.90;;;;;;6204987;28;20077;-84
2022/09/17 00:16:30;;;;;;;1.17;0.50;;;13.20;99.90;;;;;;6204411;28;20428;-83
2022/09/17 00:19:31;;;;;;;4.68;0.57;;;13.20;99.90;;;;;;6205625;28;20511;-83
2022/09/17 00:22:33;;;;;;;3.85;0.50;;;13.30;99.90;;;;;;6203910;28;20046;-83
2022/09/17 00:25:37;;;;;;;0.88;0.25;;;13.40;99.90;;;;;;6203502;28;20500;-83
2022/09/17 00:28:40;;;;;;;3.92;0.50;;;13.50;99.90;;;;;;6203315;28;20076;-84
2022/09/17 00:31:43;;;;;;;5.22;0.50;;;13.50;99.90;;;;;;6204789;28;20134;-83
2022/09/17 00:34:47;;;;;;;8.57;1.05;;;13.50;99.90;;;;;;6202524;28;20046;-83
2022/09/17 00:37:49;;;;;;;4.20;0.60;;;13.50;99.90;;;;;;6202168;28;20042;-83
2022/09/17 00:40:51;;;;;;;4.75;0.57;;;13.50;99.90;;;;;;6201971;28;20522;-83
2022/09/17 00:43:55;;;;;;;5.88;0.93;;;13.50;99.90;;;;;;6202468;28;20514;-83
2022/09/17 00:46:58;;;;;;;0.45;0.30;;;13.50;99.90;;;;;;6202305;28;20066;-84
2022/09/17 00:50:03;;;;;;;1.17;0.32;;;13.40;99.90;;;;;;6203404;28;20063;-84
2022/09/17 00:53:07;;;;;;;1.08;0.40;;;13.40;99.90;;;;;;6205612;28;20034;-84
2022/09/17 00:56:14;;;;;;;1.98;0.35;;;13.40;99.90;;;;;;6206209;28;20527;-83
2022/09/17 00:59:17;;;;;;;1.38;0.52;;;13.40;99.90;;;;;;6206261;28;20042;-83
2022/09/17 01:02:20;;;;;;;3.72;0.60;;;13.30;99.90;;;;;;6220004;28;20057;-83
2022/09/17 01:05:31;;;;;;;5.25;0.75;;;13.40;99.90;;;;;;6201547;28;20046;-84
2022/09/17 01:08:42;;;;;;;1.52;0.40;;;13.30;99.90;;;;;;6201589;28;20055;-84
2022/09/17 01:12:04;;;;;;;2.53;0.40;;;13.30;99.90;;;;;;6201960;28;20057;-84
2022/09/17 01:15:18;;;;;;;1.95;0.70;;;13.30;99.90;;;;;;6200400;28;20042;-84
2022/09/17 01:18:37;;;;;;;4.32;0.60;;;13.30;99.90;;;;;;6199839;28;20052;-85
2022/09/17 01:22:03;;;;;;;1.02;0.50;;;13.30;99.90;;;;;;6200577;28;20042;-84
2022/09/17 01:25:23;;;;;;;2.80;0.47;;;13.20;99.90;;;;;;6199744;28;20046;-84
2022/09/17 01:28:37;;;;;;;2.22;0.30;;;13.10;99.90;;;;;;6199724;28;20415;-84
2022/09/17 01:31:47;;;;;;;3.38;0.90;;;13.10;99.90;;;;;;6199827;28;20416;-85
2022/09/17 01:34:58;;;;;;;3.40;0.70;;;13.10;99.90;;;;;;6199351;28;20061;-84
2022/09/17 01:38:05;;;;;;;1.48;0.50;;;13.00;99.90;;;;;;6200855;28;20138;-84
2022/09/17 01:41:12;;;;;;;2.90;1.58;;;13.00;99.90;;;;;;6201437;28;20532;-84
2022/09/17 01:44:21;;;;;;;4.50;0.57;;;12.90;99.90;;;;;;6202457;28;20050;-85
2022/09/17 01:47:29;;;;;;;2.78;0.52;;;12.90;99.90;;;;;;6204852;28;20423;-85
2022/09/17 01:50:36;;;;;;;2.95;0.75;;;12.70;99.90;;;;;;6205379;28;20061;-85
2022/09/17 01:53:44;;;;;;;2.17;0.50;;;12.70;99.90;;;;;;6203333;28;20465;-83
2022/09/17 01:56:52;;;;;;;4.50;0.80;;;12.70;99.90;;;;;;6201265;28;20132;-83
2022/09/17 01:59:59;;;;;;;6.15;0.60;;;12.70;99.90;;;;;;6204749;28;20050;-85
2022/09/17 02:03:09;;;;;;;2.70;0.43;;;12.70;99.90;;;;;;6205597;28;20098;-84
2022/09/17 02:06:14;;;;;;;3.13;0.50;;;12.70;99.90;;;;;;6204560;28;20057;-85
2022/09/17 02:09:22;;;;;;;1.38;0.40;;;12.70;99.90;;;;;;6205536;28;20046;-84
2022/09/17 02:12:30;;;;;;;4.70;0.77;;;12.70;99.90;;;;;;6204759;28;20097;-85
2022/09/17 02:15:36;;;;;;;6.35;0.68;;;12.70;99.90;;;;;;6205165;28;20043;-85
2022/09/17 02:18:45;;;;;;;6.68;0.80;;;12.70;99.90;;;;;;6204672;28;20050;-85
2022/09/17 02:21:48;;;;;;;;;;;12.60;99.90;;;;;;6205249;28;20089;-84
2022/09/17 02:24:58;;;;;;;1.52;0.88;;;12.60;99.90;;;;;;6204836;28;20360;-84
2022/09/17 02:28:04;;;;;;;4.25;0.57;;;12.50;99.90;;;;;;6201419;28;20069;-83
2022/09/17 02:31:06;;;;;;;4.97;0.80;;;12.50;99.90;;;;;;6198529;28;20133;-83
2022/09/17 02:34:11;;;;;;;2.38;0.98;;;12.50;99.90;;;;;;6198198;28;20065;-84
2022/09/17 02:37:12;;;;;;;2.17;0.77;;;12.40;99.90;;;;;;6199365;28;20054;-84
2022/09/17 02:40:17;;;;;;;0.80;0.68;;;12.30;99.90;;;;;;6200424;28;20054;-85
2022/09/17 02:43:27;;;;;;;3.17;0.95;;;12.10;99.90;;;;;;6205946;28;20042;-84
2022/09/17 02:46:45;;;;;;;1.05;0.60;;;12.00;99.90;;;;;;6204607;28;20564;-83
2022/09/17 02:50:02;;;;;;;3.22;1.05;;;11.90;99.90;;;;;;6203482;28;20046;-83
2022/09/17 02:53:19;;;;;;;3.83;1.77;;;11.80;99.90;;;;;;6203629;28;20050;-83
2022/09/17 02:56:29;;;;;;;1.50;1.00;;;11.80;99.90;;;;;;6204749;28;20050;-83
2022/09/17 02:59:36;;;;;;;2.00;0.80;;;11.70;99.90;;;;;;6209327;28;20051;-83
2022/09/17 03:02:43;;;;;;;4.60;0.80;;;11.70;99.90;;;;;;6207114;28;20050;-82
2022/09/17 03:05:46;;;;;;;2.17;1.13;;;11.70;99.90;;;;;;6208269;28;20050;-83
2022/09/17 03:08:48;;;;;;;5.50;1.23;;;11.70;99.90;;;;;;6207568;28;20411;-82
2022/09/17 03:11:49;;;;;;;1.00;0.70;;;11.70;99.90;;;;;;6208469;28;20046;-82
2022/09/17 03:14:51;;;;;;;8.23;1.00;;;11.60;99.90;;;;;;6208082;28;20061;-82
2022/09/17 03:17:53;;;;;;;2.38;0.68;;;11.60;99.90;;;;;;6207851;28;20046;-83
2022/09/17 03:20:56;;;;;;;2.30;0.98;;;11.50;99.90;;;;;;6207854;28;20046;-82
2022/09/17 03:23:59;;;;;;;3.25;1.08;;;11.50;99.90;;;;;;6207918;28;20047;-82
2022/09/17 03:27:00;;;;;;;6.47;1.85;;;11.50;99.90;;;;;;6204409;28;20052;-84
2022/09/17 03:30:02;;;;;;;4.10;0.88;;;11.50;99.90;;;;;;6204337;28;20043;-83
2022/09/17 03:33:04;;;;;;;5.03;1.00;;;11.50;99.90;;;;;;6208226;28;20042;-84
2022/09/17 03:36:07;;;;;;;1.67;0.82;;;11.50;99.90;;;;;;6207782;28;20050;-84
2022/09/17 03:39:09;;;;;;;5.32;1.00;;;11.40;99.90;;;;;;6210276;28;20054;-84
2022/09/17 03:42:10;;;;;;;3.60;1.15;;;11.30;99.90;;;;;;6210270;28;20038;-83
2022/09/17 03:45:12;;;;;;;8.48;1.15;;;11.20;99.90;;;;;;6208802;28;20046;-84
2022/09/17 03:48:14;;;;;;;2.83;0.75;;;11.20;99.90;;;;;;6208996;28;20054;-83
2022/09/17 03:51:17;;;;;;;5.15;0.93;;;11.30;99.90;;;;;;6208194;28;20425;-83
2022/09/17 03:54:19;;;;;;;15.73;3.53;;;11.40;99.90;;;;;;6209190;28;20053;-84
2022/09/17 03:57:21;;;;;;;4.30;1.00;;;11.40;99.90;;;;;;6211034;28;20046;-85
2022/09/17 04:00:24;;;;;;;8.18;1.73;;;11.40;99.90;;;;;;6212256;28;20054;-84
2022/09/17 04:03:26;;;;;;;3.42;0.93;;;11.50;99.90;;;;;;6211488;28;20092;-84
2022/09/17 04:06:29;;;;;;;2.85;0.93;;;11.60;99.90;;;;;;6211694;28;20050;-84
2022/09/17 04:09:31;;;;;;;8.18;1.05;;;11.80;99.90;;;;;;6209963;28;20496;-82
2022/09/17 04:12:33;;;;;;;2.20;1.17;;;11.80;99.90;;;;;;6203945;28;20051;-83
2022/09/17 04:15:35;;;;;;;4.30;0.90;;;11.90;99.90;;;;;;6204078;28;20054;-83
2022/09/17 04:18:36;;;;;;;7.40;1.30;;;11.90;99.90;;;;;;6204106;28;20057;-83
2022/09/17 04:21:39;;;;;;;7.00;1.58;;;11.70;99.90;;;;;;6203776;28;20046;-84
2022/09/17 04:24:41;;;;;;;5.68;1.55;;;11.60;99.90;;;;;;6204643;28;20061;-83
2022/09/17 04:27:44;;;;;;;5.38;1.00;;;11.50;99.90;;;;;;6222860;28;20056;-83
2022/09/17 04:30:45;;;;;;;4.75;1.15;;;11.60;99.90;;;;;;6204175;28;20050;-84
2022/09/17 04:33:47;;;;;;;3.72;1.05;;;11.60;99.90;;;;;;6206055;28;20042;-84
2022/09/17 04:36:50;;;;;;;8.70;1.63;;;11.70;99.90;;;;;;6206693;28;20054;-83
2022/09/17 04:39:52;;;;;;;3.33;1.63;;;11.80;99.90;;;;;;6206209;28;20084;-85
2022/09/17 04:42:54;;;;;;;7.00;1.30;;;11.80;99.90;;;;;;6206200;28;20126;-84
2022/09/17 04:45:56;;;;;;;2.53;1.23;;;11.90;99.90;;;;;;6206118;28;20050;-84
2022/09/17 04:48:58;;;;;;;2.60;1.58;;;11.90;99.90;;;;;;6205848;28;20053;-84
2022/09/17 04:52:01;;;;;;;8.77;1.48;;;11.80;99.90;;;;;;6207636;28;20058;-84
2022/09/17 04:55:03;;;;;;;5.68;1.42;;;11.80;99.90;;;;;;6205483;28;20046;-84
2022/09/17 04:58:05;;;;;;;1.90;1.15;;;11.80;99.90;;;;;;6207257;28;20050;-83
2022/09/17 05:01:07;;;;;;;3.42;1.40;;;11.80;99.90;;;;;;6207449;28;20050;-83
2022/09/17 05:04:09;;;;;;;5.80;1.30;;;11.80;99.90;;;;;;6205909;28;20055;-84
2022/09/17 05:07:12;;;;;;;9.52;2.85;;;11.80;99.90;;;;;;6202368;28;20050;-84
2022/09/17 05:10:16;;;;;;;6.50;2.35;;;11.90;99.90;;;;;;6202298;28;20054;-84
2022/09/17 05:13:18;;;;;;;8.27;2.95;;;11.90;99.90;;;;;;6202833;28;20053;-84
2022/09/17 05:16:20;;;;;;;3.70;1.70;;;11.90;99.90;;;;;;6202916;28;20054;-84
2022/09/17 05:19:22;;;;;;;7.55;1.27;;;11.90;99.90;;;;;;6200095;28;20061;-85
2022/09/17 05:22:25;;;;;;;6.93;1.50;;;12.00;99.90;;;;;;6199624;28;20038;-84
2022/09/17 05:25:26;;;;;;;12.20;1.50;;;11.90;99.90;;;;;;6200388;28;20050;-85
2022/09/17 05:28:28;;;;;;;6.20;1.27;;;11.90;99.90;;;;;;6199537;28;20050;-84
2022/09/17 05:31:30;;;;;;;4.30;1.58;;;11.90;99.90;;;;;;6200722;28;20053;-84
2022/09/17 05:34:32;;;;;;;2.92;1.98;;;12.00;99.90;;;;;;6199419;28;20416;-84
2022/09/17 05:37:35;;;;;;;4.35;1.40;;;12.00;99.90;;;;;;6199519;28;20042;-85
2022/09/17 05:40:37;;;;;;;4.18;1.73;;;12.10;99.90;;;;;;6201277;28;20065;-85
2022/09/17 05:43:38;;;;;;;4.28;1.73;;;12.00;99.90;;;;;;6204571;28;20054;-85
2022/09/17 05:46:40;;;;;;;5.18;1.30;;;12.00;99.90;;;;;;6204194;28;20405;-85
2022/09/17 05:49:42;;;;;;;4.85;1.30;;;12.00;99.90;;;;;;6200525;28;20054;-84
2022/09/17 05:52:45;;;;;;;3.50;1.48;;;12.00;99.90;;;;;;6199934;28;20046;-85
2022/09/17 05:55:47;;;;;;;3.78;1.35;;;12.10;99.90;;;;;;6199788;28;20535;-83
2022/09/17 05:58:48;;;;;;;4.40;1.88;;;12.20;99.90;;;;;;6199087;28;20046;-85
2022/09/17 06:01:50;;;;;;;6.15;1.50;;;12.10;99.90;;;;;;6200114;28;20046;-84
2022/09/17 06:04:52;;;;;;;3.55;2.08;;;12.10;99.90;;;;;;6201358;28;20053;-85
2022/09/17 06:07:55;;;;;;;16.27;4.10;;;12.00;99.90;;;;;;6200678;28;20077;-84
2022/09/17 06:10:56;;;;;;;8.25;1.92;;;11.90;99.90;;;;;;6198729;28;20042;-85
2022/09/17 06:13:59;;;;;;;8.90;3.40;;;11.80;99.90;;;;;;6198810;28;20051;-85
2022/09/17 06:17:00;;;;;;;4.68;2.30;;;11.70;99.90;;;;;;6199217;28;20125;-85
2022/09/17 06:20:04;;;;;;;14.40;8.05;;;11.70;99.90;;;;;;6198832;28;20062;-85
2022/09/17 06:23:07;;;;;;;7.00;2.80;;;11.70;99.90;;;;;;6198065;28;20046;-86
2022/09/17 06:26:09;;;;;;;11.13;3.00;;;11.70;99.90;;;;;;6198783;28;20046;-87
2022/09/17 06:29:13;;;;;;;8.07;3.70;;;11.70;99.90;;;;;;6198116;28;20046;-86
2022/09/17 06:32:15;;;;;;;14.43;3.22;;;11.70;99.90;;;;;;6198737;28;20057;-85
2022/09/17 06:35:17;;;;;;;9.60;3.08;;;11.70;99.90;;;;;;6198599;28;20150;-86
2022/09/17 06:38:20;;;;;;;6.82;3.88;;;11.80;99.90;;;;;;6199305;28;20050;-86
2022/09/17 06:41:22;;;;;;;10.77;4.32;;;11.80;99.90;;;;;;6198978;28;20050;-85
2022/09/17 06:44:23;;;;;;;13.40;3.85;;;11.90;99.90;;;;;;6199662;28;20050;-86
2022/09/17 06:47:25;;;;;;;8.70;4.75;;;11.90;99.90;;;;;;6198479;28;20058;-86
2022/09/17 06:50:27;;;;;;;12.43;3.53;;;12.00;99.90;;;;;;6198649;28;20049;-85
2022/09/17 06:53:31;;;;;;;10.07;3.83;;;12.00;99.90;;;;;;6198484;28;20057;-84
2022/09/17 06:56:33;;;;;;;7.22;3.95;;;12.10;99.90;;;;;;6171238;28;20053;-84
2022/09/17 06:59:35;;;;;;;14.10;5.10;;;12.10;99.90;;;;;;6197877;28;20046;-84
2022/09/17 07:02:36;;;;;;;12.70;5.45;;;12.20;99.90;;;;;;6196259;28;20043;-86
2022/09/17 07:05:38;;;;;;;10.73;4.30;;;12.30;99.90;;;;;;6200519;28;20057;-85
2022/09/17 07:08:41;;;;;;;5.35;3.30;;;12.50;99.90;;;;;;6216142;28;20053;-85
2022/09/17 07:11:43;;;;;;;11.93;4.07;;;12.60;99.90;;;;;;6200282;28;20054;-84
2022/09/17 07:14:46;;;;;;;12.05;4.20;;;12.70;99.90;;;;;;6184412;28;20055;-84
2022/09/17 07:17:48;;;;;;;11.57;4.20;;;13.00;99.90;;;;;;6178408;28;20432;-84
2022/09/17 07:20:54;;;;;;;6.53;2.75;;;13.60;99.90;;;;;;6178089;28;20050;-85
2022/09/17 07:23:57;;;;;;;8.90;2.67;;;14.00;99.90;;;;;;6177935;28;20054;-84
2022/09/17 07:26:59;;;;;;;8.45;2.58;;;14.30;99.90;;;;;;6178017;28;20129;-84
2022/09/17 07:30:00;;;;;;;8.80;4.18;;;14.50;99.90;;;;;;6181290;28;20054;-85
2022/09/17 07:33:02;;;;;;;15.98;2.35;;;14.40;99.90;;;;;;6180168;28;20043;-84
2022/09/17 07:36:06;;;;;;;14.10;3.88;;;14.40;99.90;;;;;;6217323;28;20050;-84
2022/09/17 07:39:10;;;;;;;11.63;3.05;;;14.40;99.90;;;;;;6229345;28;20071;-84
2022/09/17 07:42:12;;;;;;;23.85;3.80;;;14.50;99.90;;;;;;6230716;28;20061;-84
2022/09/17 07:45:13;;;;;;;4.47;2.25;;;14.90;99.90;;;;;;6233903;28;20667;-84
2022/09/17 07:48:15;;;;;;;6.00;2.63;;;15.10;99.90;;;;;;6243532;28;20052;-84
2022/09/17 07:51:17;;;;;;;5.10;1.90;;;15.30;99.90;;;;;;6231921;28;20050;-85
2022/09/17 07:54:22;;;;;;;4.70;2.40;;;15.50;99.90;;;;;;6233058;28;20052;-85
2022/09/17 07:57:24;;;;;;;5.65;2.30;;;15.60;99.90;;;;;;6229300;28;20054;-84
2022/09/17 08:00:26;;;;;;;5.53;2.28;;;15.50;99.90;;;;;;6229376;28;20068;-83
2022/09/17 08:03:27;;;;;;;8.32;2.20;;;15.50;99.90;;;;;;6221275;28;20616;-84
2022/09/17 08:06:29;;;;;;;5.63;2.22;;;15.50;99.90;;;;;;6220132;28;20577;-83
2022/09/17 08:09:32;;;;;;;3.35;2.05;;;15.60;99.90;;;;;;6203428;28;20050;-84
2022/09/17 08:12:34;;;;;;;3.85;1.95;;;15.40;99.90;;;;;;6185571;28;20050;-84
2022/09/17 08:15:36;;;;;;;11.15;2.53;;;15.30;99.90;;;;;;6181265;28;20057;-84
2022/09/17 08:18:38;;;;;;;5.70;2.33;;;15.40;99.90;;;;;;6182841;28;20046;-84
2022/09/17 08:25:12;;;;;;;9.48;3.70;;;15.60;99.90;;;;;;6182048;28;20074;-84
2022/09/17 08:28:13;;;;;;;4.65;1.70;;;15.80;99.90;;;;;;6183990;28;20050;-82
2022/09/17 08:31:16;;;;;;;4.60;1.85;;;16.30;99.90;;;;;;6184704;28;20057;-83
2022/09/17 08:34:18;;;;;;;7.15;2.45;;;16.60;99.30;;;;;;6196654;28;20546;-83
2022/09/17 08:37:21;;;;;;;7.28;1.88;;;16.80;98.80;;;;;;6223117;28;20042;-84
2022/09/17 08:40:26;;;;;;;8.02;2.00;;;16.80;97.30;;;;;;6233689;28;20053;-84
2022/09/17 08:43:30;;;;;;;5.68;2.50;;;16.70;97.30;;;;;;6229868;28;20049;-85
2022/09/17 08:46:33;;;;;;;5.60;1.45;;;16.60;97.60;;;;;;6206524;28;20058;-84
2022/09/17 08:49:39;;;;;;;6.15;1.83;;;16.30;97.40;;;;;;6203229;28;20057;-84
2022/09/17 08:53:06;;;;;;;7.57;2.15;;;16.10;98.00;;;;;;6206982;28;20057;-84
2022/09/17 08:56:15;;;;;;;4.55;1.67;;;16.00;98.20;;;;;;6204084;28;20420;-84
2022/09/17 08:59:24;;;;;;;7.45;2.25;;;15.90;98.30;;;;;;6203930;28;20062;-84
2022/09/17 09:02:38;;;;;;;7.57;3.97;;;15.80;98.00;;;;;;6202609;28;20129;-84
2022/09/17 09:05:45;;;;;;;8.13;4.30;;;16.00;97.60;;;;;;6208509;28;20134;-84
2022/09/17 09:08:51;;;;;;;7.28;1.50;;;16.60;97.90;;;;;;6192648;28;20417;-84
2022/09/17 09:12:01;;;;;;;11.48;4.80;;;17.80;95.30;;;;;;6183457;28;20054;-84
2022/09/17 09:15:08;;;;;;;2.75;0.65;;;18.80;93.40;;;;;;6201768;28;20050;-84
2022/09/17 09:18:18;;;;;;;5.40;1.00;;;19.30;90.60;;;;;;6201192;28;20053;-84
2022/09/17 09:21:27;;;;;;;10.10;5.40;;;19.30;87.60;;;;;;6203921;28;20054;-84
2022/09/17 09:24:36;;;;;;;5.68;0.70;;;19.00;89.00;;;;;;6205277;28;20069;-84
2022/09/17 09:27:46;;;;;;;2.67;0.70;;;18.90;88.30;;;;;;6201686;28;20061;-84
2022/09/17 09:31:06;;;;;;;3.17;0.80;;;18.80;90.00;;;;;;6201798;28;20050;-84
2022/09/17 09:34:09;;;;;;;3.00;0.73;;;18.40;89.30;;;;;;6197551;28;20047;-84
2022/09/17 09:37:17;;;;;;;6.43;1.10;;;18.20;90.40;;;;;;6208471;28;20042;-83
2022/09/17 09:40:28;;;;;;;11.88;1.90;;;18.00;90.90;;;;;;6201576;28;20050;-84
2022/09/17 09:43:39;;;;;;;3.55;1.42;;;18.00;91.30;;;;;;6201342;28;20047;-84
2022/09/17 09:47:11;;;;;;;16.58;2.55;;;18.00;90.90;;;;;;6201135;28;20057;-86
2022/09/17 09:50:27;;;;;;;4.68;1.15;;;18.50;90.10;;;;;;6200569;28;20043;-84
2022/09/17 09:53:40;;;;;;;5.53;0.52;;;18.30;87.30;;;;;;6200652;28;20054;-84
2022/09/17 09:57:02;;;;;;;3.58;0.70;;;18.00;90.00;;;;;;6207333;28;20050;-85
2022/09/17 10:00:25;;;;;;;2.58;0.60;;;18.10;90.20;;;;;;6201066;28;20839;-84
2022/09/17 10:03:30;;;;;;;3.75;1.15;;;18.30;88.30;;;;;;6199396;28;20057;-84
2022/09/17 10:06:33;;;;;;;12.52;5.72;;;18.30;89.70;;;;;;6199380;28;20057;-84
2022/09/17 10:09:36;;;;;;;20.38;9.32;;;18.40;89.60;;;;;;6200909;28;20042;-83
2022/09/17 10:12:39;;;;;;;7.28;3.70;;;18.70;88.00;;;;;;6197758;28;20055;-84
2022/09/17 10:15:42;;;;;;;5.18;0.82;;;18.80;86.30;;;;;;6178070;28;20055;-84
2022/09/17 10:18:51;;;;;;;5.88;2.15;;;18.90;87.00;;;;;;6177854;28;20050;-84
2022/09/17 10:21:57;;;;;;;15.00;7.05;;;19.00;85.70;;;;;;6179292;28;20047;-84
2022/09/17 10:25:01;;;;;;;7.43;3.42;;;19.30;83.60;;;;;;6175389;28;20519;-83
2022/09/17 10:28:13;;;;;;;11.07;2.47;;;19.00;83.20;;;;;;6178695;28;20190;-85
2022/09/17 10:31:16;;;;;;;4.88;0.85;;;18.80;82.10;;;;;;6177823;28;20051;-84
2022/09/17 10:34:23;;;;;;;27.88;14.45;;;18.60;82.00;;;;;;6188227;28;20049;-84
2022/09/17 10:37:43;;;;;;;6.88;0.55;;;18.70;84.00;;;;;;6218485;28;20050;-84
2022/09/17 10:40:45;;;;;;;4.25;1.25;;;19.40;84.00;;;;;;6226966;28;20053;-84
2022/09/17 10:43:47;;;;;;;7.18;2.22;;;19.90;81.30;;;;;;6229254;28;20057;-84
2022/09/17 10:46:51;;;;;;;13.35;2.28;;;20.70;79.60;;;;;;6227707;28;20052;-84
2022/09/17 10:49:58;;;;;;;9.63;1.00;;;21.20;75.80;;;;;;6226071;28;20525;-84
2022/09/17 10:53:04;;;;;;;6.80;1.93;;;21.40;75.80;;;;;;6226046;28;20100;-84
2022/09/17 10:56:16;;;;;;;1.55;0.40;;;21.40;71.90;;;;;;6227074;28;20308;-85
2022/09/17 10:59:42;;;;;;;6.13;0.70;;;21.20;72.30;;;;;;6226574;28;20050;-85
2022/09/17 11:03:13;;;;;;;1.98;0.47;;;21.00;71.90;;;;;;6226614;28;20050;-84
2022/09/17 11:06:42;;;;;;;2.13;0.50;;;20.60;71.10;;;;;;6214057;28;20065;-84
2022/09/17 11:09:53;;;;;;;4.18;0.85;;;20.10;72.90;;;;;;6198418;28;20042;-84
2022/09/17 11:13:10;;;;;;;6.75;0.52;;;19.70;74.70;;;;;;6207088;28;20073;-85
2022/09/17 11:16:19;;;;;;;2.22;0.60;;;19.50;75.80;;;;;;6175814;28;20050;-84
2022/09/17 11:19:33;;;;;;;2.65;0.47;;;19.70;75.00;;;;;;6197400;28;20046;-84
2022/09/17 11:22:47;;;;;;;2.83;0.40;;;20.40;71.10;;;;;;6231301;28;20522;-85
2022/09/17 11:25:54;;;;;;;2.38;0.55;;;20.80;68.20;;;;;;6228301;28;20419;-84
2022/09/17 11:29:06;;;;;;;7.93;0.50;;;20.90;68.10;;;;;;6229943;28;20049;-84
2022/09/17 11:32:25;;;;;;;3.58;0.77;;;20.80;67.70;;;;;;6232007;28;20049;-83
2022/09/17 11:35:32;;;;;;;8.25;0.95;;;20.90;68.50;;;;;;6217404;28;20431;-83
2022/09/17 11:38:40;;;;;;;9.27;1.08;;;21.10;68.50;;;;;;6180621;28;20536;-84
2022/09/17 11:41:45;;;;;;;7.28;0.63;;;21.00;67.40;;;;;;6180083;28;20046;-84
2022/09/17 11:44:51;;;;;;;2.22;0.40;;;20.70;67.50;;;;;;6180226;28;20062;-84
2022/09/17 11:48:00;;;;;;;4.03;0.82;;;20.50;67.80;;;;;;6181537;28;20061;-83
2022/09/17 11:51:21;;;;;;;5.72;0.50;;;20.40;70.40;;;;;;6180382;28;20054;-84
2022/09/17 11:54:26;;;;;;;6.43;0.50;;;20.30;71.60;;;;;;6181228;28;20046;-84
2022/09/17 11:57:33;;;;;;;5.10;0.98;;;20.10;74.20;;;;;;6180335;28;20051;-85
2022/09/17 12:00:45;;;;;;;4.03;0.60;;;19.60;77.80;;;;;;6181187;28;20050;-84
2022/09/17 12:03:51;;;;;;;5.32;0.77;;;19.00;79.60;;;;;;6186482;28;20051;-86
2022/09/17 12:06:59;;;;;;;3.83;0.77;;;18.40;83.10;;;;;;6222753;28;20049;-85
2022/09/17 12:10:07;;;;;;;;;;;18.00;85.80;;;;;;6230815;28;20045;-84
2022/09/17 12:13:19;;;;;;;3.60;0.50;;;17.80;87.70;;;;;;6230332;28;19932;-86
2022/09/17 12:16:24;;;;;;;9.15;0.90;;;17.70;88.80;;;;;;6179878;28;20073;-87
2022/09/17 12:19:31;;;;;;;3.90;0.85;;;17.60;90.10;;;;;;6181006;28;20588;-82
2022/09/17 12:22:38;;;;;;;2.47;0.80;;;17.60;90.60;;;;;;6183188;28;20042;-82
2022/09/17 12:25:49;;;;;;;1.13;0.52;;;17.40;90.80;;;;;;6182441;28;20046;-83
2022/09/17 12:29:00;;;;;;;2.83;0.55;;;17.30;91.30;;;;;;6179822;28;20054;-83
2022/09/17 12:32:11;;;;;;;14.55;4.65;;;17.20;92.10;;;;;;6181158;28;20058;-82
2022/09/17 12:35:21;;;;;;;1.92;1.17;;;17.20;92.80;;;;;;6206205;28;20523;-82
2022/09/17 12:38:52;;;;;;;2.35;0.80;;;17.40;92.90;;;;;;6230457;28;20050;-83
2022/09/17 12:42:01;;;;;;;2.33;0.90;;;17.50;92.80;;;;;;6229496;28;20046;-82
2022/09/17 12:45:13;;;;;;;1.05;0.50;;;17.80;92.60;;;;;;6228827;28;20045;-82
2022/09/17 12:48:41;;;;;;;2.13;0.50;;;18.00;92.40;;;;;;6229095;28;20053;-82
2022/09/17 12:51:52;;;;;;;2.08;0.50;;;18.40;92.10;;;;;;6229340;28;20059;-83
2022/09/17 12:55:13;;;;;;;3.15;0.30;;;18.70;91.20;;;;;;6229210;28;20053;-82
2022/09/17 12:58:28;;;;;;;1.10;0.32;;;18.90;90.80;;;;;;6229320;28;20050;-83
2022/09/17 13:01:35;;;;;;;2.45;0.82;;;19.10;90.30;;;;;;6229960;28;20042;-83
2022/09/17 13:05:17;;;;;;;1.88;0.20;;;19.30;89.20;;;;;;6223914;28;20049;-83
2022/09/17 13:08:47;;;;;;;2.38;0.30;;;19.30;86.90;;;;;;6192467;28;20442;-82
2022/09/17 13:12:08;;;;;;;6.43;0.70;;;19.30;87.30;;;;;;6228629;28;20049;-83
2022/09/17 13:15:39;;;;;;;3.83;0.57;;;18.90;88.70;;;;;;6221401;28;20047;-83
2022/09/17 13:18:46;;;;;;;3.42;0.40;;;19.00;89.30;;;;;;6203678;28;20038;-82
2022/09/17 13:21:53;;;;;;;1.92;0.38;;;19.10;88.80;;;;;;6204042;28;20129;-83
2022/09/17 13:25:03;;;;;;;1.67;0.43;;;19.30;87.60;;;;;;6203719;28;20041;-83
2022/09/17 13:28:16;;;;;;;1.35;0.30;;;19.40;86.90;;;;;;6204503;28;20050;-84
2022/09/17 13:31:43;;;;;;;2.58;0.50;;;19.80;80.30;;;;;;6204142;28;20050;-83
2022/09/17 13:34:46;;;;;;;7.32;5.32;;;20.20;78.60;;;;;;6208522;28;20054;-83
2022/09/17 13:37:56;;;;;;;15.75;7.68;;;20.70;76.60;;;;;;6222621;28;20046;-83
2022/09/17 13:41:19;;;;;;;67.40;28.20;;;21.30;71.60;;;;;;6228979;28;20071;-83
2022/09/17 13:44:22;;;;;;;4.80;3.42;;;21.40;71.30;;;;;;6230442;28;20050;-83
2022/09/17 13:47:27;;;;;;;4.72;1.83;;;21.80;71.00;;;;;;6214131;28;20050;-83
2022/09/17 13:50:34;;;;;;;2.85;0.70;;;21.90;69.10;;;;;;6231179;28;20054;-84
2022/09/17 13:53:37;;;;;;;4.00;0.68;;;21.70;68.60;;;;;;6229709;28;20050;-83
2022/09/17 13:56:42;;;;;;;2.70;0.90;;;21.40;68.50;;;;;;6210334;28;20046;-83
2022/09/17 13:59:55;;;;;;;7.18;1.10;;;21.10;68.90;;;;;;6207562;28;20058;-82
2022/09/17 14:03:43;;;;;;;5.25;0.65;;;20.80;69.30;;;;;;6212518;28;20046;-84
2022/09/17 14:06:52;;;;;;;3.33;0.80;;;20.50;69.90;;;;;;6203069;28;20050;-85
2022/09/17 14:09:56;;;;;;;8.77;1.00;;;20.40;71.00;;;;;;6201413;28;20046;-84
2022/09/17 14:13:20;;;;;;;4.18;1.35;;;20.30;71.50;;;;;;6200703;28;20057;-83
2022/09/17 14:16:49;;;;;;;2.63;1.48;;;20.10;70.60;;;;;;6194719;28;20528;-83
2022/09/17 14:19:54;;;;;;;21.60;8.75;;;19.40;74.30;;;;;;6175210;28;20198;-84
2022/09/17 14:22:59;;;;;;;10.57;3.13;;;18.90;78.40;;;;;;6175759;28;20078;-83
2022/09/17 14:26:06;;;;;;;20.60;9.82;;;18.50;80.50;;;;;;6178036;28;20046;-83
2022/09/17 14:29:16;;;;;;;27.27;5.85;;;18.60;79.60;;;;;;6184226;28;20118;-82
2022/09/17 14:32:22;;;;;;;7.65;3.20;;;18.90;76.30;;;;;;6177273;28;20052;-82
2022/09/17 14:35:31;;;;;;;3.58;0.63;;;19.50;74.90;;;;;;6211135;28;20546;-83
2022/09/17 14:38:43;;;;;;;3.50;1.17;;;19.70;73.90;;;;;;6174888;28;20043;-83
2022/09/17 14:41:45;;;;;;;1.90;0.60;;;19.80;73.50;;;;;;6186054;28;20093;-83
2022/09/17 14:45:09;;;;;;;3.58;0.95;;;19.90;73.90;;;;;;6180726;28;20043;-84
2022/09/17 14:48:31;;;;;;;3.13;0.70;;;19.70;73.50;;;;;;6180934;28;20070;-83
2022/09/17 14:51:38;;;;;;;1.23;0.52;;;19.40;70.20;;;;;;6178958;28;20060;-83
2022/09/17 14:54:43;;;;;;;1.15;0.28;;;19.20;71.20;;;;;;6179820;28;20058;-82
2022/09/17 14:57:46;;;;;;;3.88;0.60;;;19.10;71.10;;;;;;6180854;28;20416;-84
2022/09/17 15:00:52;;;;;;;1.80;0.45;;;19.10;70.90;;;;;;6180172;28;20058;-82
2022/09/17 15:04:10;;;;;;;1.58;0.60;;;19.00;71.90;;;;;;6201013;28;20049;-82
2022/09/17 15:07:12;;;;;;;2.97;0.40;;;18.80;73.20;;;;;;6221091;28;20050;-84
2022/09/17 15:10:17;;;;;;;5.07;0.77;;;18.70;74.70;;;;;;6229364;28;20053;-83
2022/09/17 15:13:22;;;;;;;4.40;0.68;;;18.60;75.50;;;;;;6229881;28;20056;-82
2022/09/17 15:16:26;;;;;;;3.22;0.50;;;18.60;75.80;;;;;;6228408;28;20046;-82
2022/09/17 15:19:32;;;;;;;1.75;0.50;;;18.50;75.10;;;;;;6184366;28;20062;-82
2022/09/17 15:22:38;;;;;;;5.20;2.88;;;18.60;75.80;;;;;;6180347;28;20038;-82
2022/09/17 15:25:43;;;;;;;2.70;0.88;;;18.60;75.70;;;;;;6178107;28;20046;-82
2022/09/17 15:28:45;;;;;;;6.28;0.75;;;18.70;75.80;;;;;;6183833;28;20055;-83
2022/09/17 15:31:47;;;;;;;2.85;0.65;;;18.80;75.40;;;;;;6180011;28;20046;-82
2022/09/17 15:35:17;;;;;;;3.63;0.73;;;18.90;76.20;;;;;;6197421;28;20046;-82
2022/09/17 15:38:26;;;;;;;2.50;1.25;;;19.10;73.30;;;;;;6225814;28;20252;-83
2022/09/17 15:41:32;;;;;;;2.97;1.02;;;19.00;74.40;;;;;;6226041;28;20045;-83
2022/09/17 15:44:34;;;;;;;5.53;0.70;;;19.00;73.90;;;;;;6215884;28;20069;-83
2022/09/17 15:47:48;;;;;;;2.85;1.00;;;18.90;73.30;;;;;;6226371;28;20045;-83
2022/09/17 15:50:52;;;;;;;2.08;0.68;;;18.60;73.00;;;;;;6228237;28;20049;-83
2022/09/17 15:53:56;;;;;;;5.80;1.27;;;18.40;74.20;;;;;;6227148;28;20049;-83
2022/09/17 15:57:00;;;;;;;0.93;0.50;;;18.20;75.30;;;;;;6226423;28;20129;-83
2022/09/17 16:00:08;;;;;;;5.00;1.30;;;18.10;75.30;;;;;;6226631;28;20503;-82
2022/09/17 16:04:00;;;;;;;4.50;1.50;;;17.90;75.90;;;;;;6226777;28;20066;-83
2022/09/17 16:07:24;;;;;;;4.05;1.17;;;17.70;77.00;;;;;;6194161;28;20046;-83
2022/09/17 16:10:25;;;;;;;3.97;0.60;;;17.40;78.20;;;;;;6229982;28;20439;-83
2022/09/17 16:13:28;;;;;;;3.92;0.88;;;17.30;79.20;;;;;;6229976;28;20065;-82
2022/09/17 16:16:33;;;;;;;4.22;0.80;;;17.10;83.50;;;;;;6229992;28;20048;-83